sensor_id;sensor_type;location;lat;lon;timestamp;P1;durP1;ratioP1;P2;durP2;ratioP2
16189;SDS011;41754;51.498;7.540;2022-09-13T00:02:15;3.97;;;2.67;;
16189;SDS011;41754;51.498;7.540;2022-09-13T00:04:42;3.57;;;2.63;;
16189;SDS011;41754;51.498;7.540;2022-09-13T00:07:10;3.17;;;2.88;;
16189;SDS011;41754;51.498;7.540;2022-09-13T00:09:38;3.20;;;2.80;;
16189;SDS011;41754;51.498;7.540;2022-09-13T00:12:07;3.03;;;2.83;;
16189;SDS011;41754;51.498;7.540;2022-09-13T00:14:35;2.73;;;2.53;;
16189;SDS011;41754;51.498;7.540;2022-09-13T00:17:03;4.05;;;2.80;;
16189;SDS011;41754;51.498;7.540;2022-09-13T00:19:31;3.03;;;2.80;;
16189;SDS011;41754;51.498;7.540;2022-09-13T00:21:58;2.85;;;2.65;;
16189;SDS011;41754;51.498;7.540;2022-09-13T00:24:26;3.30;;;2.70;;
16189;SDS011;41754;51.498;7.540;2022-09-13T00:26:54;3.72;;;2.70;;
16189;SDS011;41754;51.498;7.540;2022-09-13T00:29:23;3.30;;;3.00;;
16189;SDS011;41754;51.498;7.540;2022-09-13T00:31:51;3.55;;;2.78;;
16189;SDS011;41754;51.498;7.540;2022-09-13T00:34:19;3.17;;;2.67;;
16189;SDS011;41754;51.498;7.540;2022-09-13T00:36:47;3.00;;;2.80;;
16189;SDS011;41754;51.498;7.540;2022-09-13T00:39:15;3.00;;;2.78;;
16189;SDS011;41754;51.498;7.540;2022-09-13T00:41:43;3.10;;;2.80;;
16189;SDS011;41754;51.498;7.540;2022-09-13T00:47:13;2.83;;;2.50;;
16189;SDS011;41754;51.498;7.540;2022-09-13T00:49:43;3.30;;;2.67;;
16189;SDS011;41754;51.498;7.540;2022-09-13T00:52:13;5.13;;;2.80;;
16189;SDS011;41754;51.498;7.540;2022-09-13T00:54:44;2.80;;;2.60;;
16189;SDS011;41754;51.498;7.540;2022-09-13T00:57:13;3.20;;;2.90;;
16189;SDS011;41754;51.498;7.540;2022-09-13T00:59:43;2.90;;;2.70;;
16189;SDS011;41754;51.498;7.540;2022-09-13T01:02:14;3.00;;;2.70;;
16189;SDS011;41754;51.498;7.540;2022-09-13T01:04:42;3.85;;;2.80;;
16189;SDS011;41754;51.498;7.540;2022-09-13T01:07:11;3.07;;;2.50;;
16189;SDS011;41754;51.498;7.540;2022-09-13T01:09:40;3.70;;;2.73;;
16189;SDS011;41754;51.498;7.540;2022-09-13T01:12:12;2.80;;;2.60;;
16189;SDS011;41754;51.498;7.540;2022-09-13T01:14:43;3.10;;;2.90;;
16189;SDS011;41754;51.498;7.540;2022-09-13T01:17:14;3.30;;;2.88;;
16189;SDS011;41754;51.498;7.540;2022-09-13T01:19:42;4.00;;;2.60;;
16189;SDS011;41754;51.498;7.540;2022-09-13T01:22:18;2.92;;;2.72;;
16189;SDS011;41754;51.498;7.540;2022-09-13T01:28:16;3.05;;;2.67;;
16189;SDS011;41754;51.498;7.540;2022-09-13T01:30:54;2.60;;;2.40;;
16189;SDS011;41754;51.498;7.540;2022-09-13T01:36:17;2.88;;;2.60;;
16189;SDS011;41754;51.498;7.540;2022-09-13T01:38:58;3.80;;;2.65;;
16189;SDS011;41754;51.498;7.540;2022-09-13T01:41:43;2.95;;;2.63;;
16189;SDS011;41754;51.498;7.540;2022-09-13T01:44:25;3.25;;;2.35;;
16189;SDS011;41754;51.498;7.540;2022-09-13T01:47:01;2.95;;;2.42;;
16189;SDS011;41754;51.498;7.540;2022-09-13T01:49:31;3.43;;;2.80;;
16189;SDS011;41754;51.498;7.540;2022-09-13T01:52:01;3.42;;;2.95;;
16189;SDS011;41754;51.498;7.540;2022-09-13T01:54:33;3.15;;;2.60;;
16189;SDS011;41754;51.498;7.540;2022-09-13T01:57:06;3.17;;;2.38;;
16189;SDS011;41754;51.498;7.540;2022-09-13T01:59:41;2.75;;;2.50;;
16189;SDS011;41754;51.498;7.540;2022-09-13T02:02:14;2.90;;;2.50;;
16189;SDS011;41754;51.498;7.540;2022-09-13T02:04:46;2.60;;;2.40;;
16189;SDS011;41754;51.498;7.540;2022-09-13T02:07:18;2.67;;;2.20;;
16189;SDS011;41754;51.498;7.540;2022-09-13T02:09:50;2.53;;;2.30;;
16189;SDS011;41754;51.498;7.540;2022-09-13T02:12:23;2.80;;;2.45;;
16189;SDS011;41754;51.498;7.540;2022-09-13T02:14:53;2.63;;;2.30;;
16189;SDS011;41754;51.498;7.540;2022-09-13T02:17:24;2.60;;;2.10;;
16189;SDS011;41754;51.498;7.540;2022-09-13T02:19:56;2.90;;;2.30;;
16189;SDS011;41754;51.498;7.540;2022-09-13T02:22:24;2.72;;;2.35;;
16189;SDS011;41754;51.498;7.540;2022-09-13T02:24:56;2.58;;;2.38;;
16189;SDS011;41754;51.498;7.540;2022-09-13T02:27:26;2.80;;;2.15;;
16189;SDS011;41754;51.498;7.540;2022-09-13T02:29:57;3.20;;;2.30;;
16189;SDS011;41754;51.498;7.540;2022-09-13T02:32:29;3.10;;;2.30;;
16189;SDS011;41754;51.498;7.540;2022-09-13T02:35:00;2.55;;;2.30;;
16189;SDS011;41754;51.498;7.540;2022-09-13T02:37:30;2.53;;;2.30;;
16189;SDS011;41754;51.498;7.540;2022-09-13T02:40:01;2.55;;;2.35;;
16189;SDS011;41754;51.498;7.540;2022-09-13T02:42:33;3.20;;;2.53;;
16189;SDS011;41754;51.498;7.540;2022-09-13T02:45:03;2.63;;;2.42;;
16189;SDS011;41754;51.498;7.540;2022-09-13T02:47:36;3.10;;;2.50;;
16189;SDS011;41754;51.498;7.540;2022-09-13T02:50:12;2.83;;;2.50;;
16189;SDS011;41754;51.498;7.540;2022-09-13T02:52:47;3.33;;;2.17;;
16189;SDS011;41754;51.498;7.540;2022-09-13T02:55:17;3.80;;;2.58;;
16189;SDS011;41754;51.498;7.540;2022-09-13T02:57:52;2.50;;;2.30;;
16189;SDS011;41754;51.498;7.540;2022-09-13T03:00:24;2.50;;;2.30;;
16189;SDS011;41754;51.498;7.540;2022-09-13T03:02:53;2.83;;;2.27;;
16189;SDS011;41754;51.498;7.540;2022-09-13T03:05:23;5.10;;;2.60;;
16189;SDS011;41754;51.498;7.540;2022-09-13T03:07:51;3.13;;;2.35;;
16189;SDS011;41754;51.498;7.540;2022-09-13T03:10:19;2.65;;;2.45;;
16189;SDS011;41754;51.498;7.540;2022-09-13T03:12:54;2.40;;;2.20;;
16189;SDS011;41754;51.498;7.540;2022-09-13T03:15:35;2.67;;;2.35;;
16189;SDS011;41754;51.498;7.540;2022-09-13T03:18:16;4.03;;;2.25;;
16189;SDS011;41754;51.498;7.540;2022-09-13T03:20:55;2.53;;;2.33;;
16189;SDS011;41754;51.498;7.540;2022-09-13T03:23:32;2.57;;;2.37;;
16189;SDS011;41754;51.498;7.540;2022-09-13T03:26:07;3.30;;;2.42;;
16189;SDS011;41754;51.498;7.540;2022-09-13T03:28:45;2.45;;;2.25;;
16189;SDS011;41754;51.498;7.540;2022-09-13T03:31:20;2.38;;;2.00;;
16189;SDS011;41754;51.498;7.540;2022-09-13T03:33:55;2.22;;;2.10;;
16189;SDS011;41754;51.498;7.540;2022-09-13T03:36:26;2.93;;;2.37;;
16189;SDS011;41754;51.498;7.540;2022-09-13T03:39:01;2.63;;;2.42;;
16189;SDS011;41754;51.498;7.540;2022-09-13T03:41:41;3.20;;;2.55;;
16189;SDS011;41754;51.498;7.540;2022-09-13T03:44:11;2.83;;;2.63;;
16189;SDS011;41754;51.498;7.540;2022-09-13T03:46:41;2.88;;;2.33;;
16189;SDS011;41754;51.498;7.540;2022-09-13T03:49:11;3.00;;;2.50;;
16189;SDS011;41754;51.498;7.540;2022-09-13T03:51:41;3.30;;;2.42;;
16189;SDS011;41754;51.498;7.540;2022-09-13T03:54:11;3.33;;;2.20;;
16189;SDS011;41754;51.498;7.540;2022-09-13T03:56:41;2.75;;;2.50;;
16189;SDS011;41754;51.498;7.540;2022-09-13T03:59:09;4.15;;;2.30;;
16189;SDS011;41754;51.498;7.540;2022-09-13T04:01:37;3.63;;;2.53;;
16189;SDS011;41754;51.498;7.540;2022-09-13T04:04:05;2.80;;;2.50;;
16189;SDS011;41754;51.498;7.540;2022-09-13T04:06:34;3.17;;;2.65;;
16189;SDS011;41754;51.498;7.540;2022-09-13T04:09:02;3.65;;;2.50;;
16189;SDS011;41754;51.498;7.540;2022-09-13T04:11:29;3.10;;;2.58;;
16189;SDS011;41754;51.498;7.540;2022-09-13T04:13:58;2.50;;;2.30;;
16189;SDS011;41754;51.498;7.540;2022-09-13T04:16:26;3.70;;;2.55;;
16189;SDS011;41754;51.498;7.540;2022-09-13T04:18:54;4.22;;;2.38;;
16189;SDS011;41754;51.498;7.540;2022-09-13T04:21:22;2.63;;;2.42;;
16189;SDS011;41754;51.498;7.540;2022-09-13T04:23:51;4.40;;;2.60;;
16189;SDS011;41754;51.498;7.540;2022-09-13T04:26:19;3.45;;;2.95;;
16189;SDS011;41754;51.498;7.540;2022-09-13T04:28:47;4.43;;;2.90;;
16189;SDS011;41754;51.498;7.540;2022-09-13T04:31:15;2.80;;;2.30;;
16189;SDS011;41754;51.498;7.540;2022-09-13T04:33:42;2.50;;;2.30;;
16189;SDS011;41754;51.498;7.540;2022-09-13T04:36:10;2.40;;;2.20;;
16189;SDS011;41754;51.498;7.540;2022-09-13T04:38:38;2.58;;;2.38;;
16189;SDS011;41754;51.498;7.540;2022-09-13T04:41:07;5.25;;;2.28;;
16189;SDS011;41754;51.498;7.540;2022-09-13T04:43:36;3.97;;;2.67;;
16189;SDS011;41754;51.498;7.540;2022-09-13T04:46:03;4.90;;;2.40;;
16189;SDS011;41754;51.498;7.540;2022-09-13T04:48:31;3.55;;;2.45;;
16189;SDS011;41754;51.498;7.540;2022-09-13T04:51:00;3.55;;;2.50;;
16189;SDS011;41754;51.498;7.540;2022-09-13T04:53:29;3.22;;;2.53;;
16189;SDS011;41754;51.498;7.540;2022-09-13T04:55:59;4.53;;;2.50;;
16189;SDS011;41754;51.498;7.540;2022-09-13T04:58:28;2.97;;;2.50;;
16189;SDS011;41754;51.498;7.540;2022-09-13T05:00:59;3.03;;;2.50;;
16189;SDS011;41754;51.498;7.540;2022-09-13T05:03:28;2.97;;;2.50;;
16189;SDS011;41754;51.498;7.540;2022-09-13T05:05:59;2.60;;;2.40;;
16189;SDS011;41754;51.498;7.540;2022-09-13T05:08:28;2.65;;;2.20;;
16189;SDS011;41754;51.498;7.540;2022-09-13T05:10:56;4.50;;;2.50;;
16189;SDS011;41754;51.498;7.540;2022-09-13T05:13:24;2.60;;;2.33;;
16189;SDS011;41754;51.498;7.540;2022-09-13T05:15:55;3.57;;;2.43;;
16189;SDS011;41754;51.498;7.540;2022-09-13T05:18:24;3.25;;;2.50;;
16189;SDS011;41754;51.498;7.540;2022-09-13T05:20:52;2.87;;;2.30;;
16189;SDS011;41754;51.498;7.540;2022-09-13T05:23:21;2.58;;;2.30;;
16189;SDS011;41754;51.498;7.540;2022-09-13T05:25:52;3.53;;;2.40;;
16189;SDS011;41754;51.498;7.540;2022-09-13T05:28:20;2.77;;;2.20;;
16189;SDS011;41754;51.498;7.540;2022-09-13T05:30:56;3.42;;;2.40;;
16189;SDS011;41754;51.498;7.540;2022-09-13T05:33:24;2.42;;;2.13;;
16189;SDS011;41754;51.498;7.540;2022-09-13T05:35:53;3.08;;;2.17;;
16189;SDS011;41754;51.498;7.540;2022-09-13T05:38:21;3.80;;;2.50;;
16189;SDS011;41754;51.498;7.540;2022-09-13T05:40:52;3.78;;;2.30;;
16189;SDS011;41754;51.498;7.540;2022-09-13T05:43:22;2.78;;;2.30;;
16189;SDS011;41754;51.498;7.540;2022-09-13T05:46:00;4.32;;;2.88;;
16189;SDS011;41754;51.498;7.540;2022-09-13T05:48:28;2.78;;;2.55;;
16189;SDS011;41754;51.498;7.540;2022-09-13T05:51:02;3.43;;;2.40;;
16189;SDS011;41754;51.498;7.540;2022-09-13T05:53:31;3.80;;;2.50;;
16189;SDS011;41754;51.498;7.540;2022-09-13T05:55:59;3.05;;;2.45;;
16189;SDS011;41754;51.498;7.540;2022-09-13T05:58:27;4.10;;;2.55;;
16189;SDS011;41754;51.498;7.540;2022-09-13T06:00:55;3.58;;;2.55;;
16189;SDS011;41754;51.498;7.540;2022-09-13T06:03:25;3.47;;;2.85;;
16189;SDS011;41754;51.498;7.540;2022-09-13T06:05:55;2.90;;;2.30;;
16189;SDS011;41754;51.498;7.540;2022-09-13T06:08:24;3.10;;;2.53;;
16189;SDS011;41754;51.498;7.540;2022-09-13T06:10:53;3.95;;;2.50;;
16189;SDS011;41754;51.498;7.540;2022-09-13T06:13:22;2.70;;;2.37;;
16189;SDS011;41754;51.498;7.540;2022-09-13T06:15:50;4.38;;;2.70;;
16189;SDS011;41754;51.498;7.540;2022-09-13T06:18:19;3.63;;;2.35;;
16189;SDS011;41754;51.498;7.540;2022-09-13T06:20:48;3.00;;;2.40;;
16189;SDS011;41754;51.498;7.540;2022-09-13T06:23:16;3.87;;;2.40;;
16189;SDS011;41754;51.498;7.540;2022-09-13T06:25:44;4.03;;;2.80;;
16189;SDS011;41754;51.498;7.540;2022-09-13T06:28:12;4.18;;;2.60;;
16189;SDS011;41754;51.498;7.540;2022-09-13T06:30:40;7.10;;;3.25;;
16189;SDS011;41754;51.498;7.540;2022-09-13T06:33:08;6.63;;;2.80;;
16189;SDS011;41754;51.498;7.540;2022-09-13T06:35:36;3.65;;;2.60;;
16189;SDS011;41754;51.498;7.540;2022-09-13T06:38:05;4.63;;;2.58;;
16189;SDS011;41754;51.498;7.540;2022-09-13T06:40:32;3.38;;;2.45;;
16189;SDS011;41754;51.498;7.540;2022-09-13T06:43:00;2.47;;;2.08;;
16189;SDS011;41754;51.498;7.540;2022-09-13T06:45:28;3.07;;;2.30;;
16189;SDS011;41754;51.498;7.540;2022-09-13T06:47:56;4.35;;;2.17;;
16189;SDS011;41754;51.498;7.540;2022-09-13T06:50:23;3.47;;;2.28;;
16189;SDS011;41754;51.498;7.540;2022-09-13T06:52:51;3.15;;;2.13;;
16189;SDS011;41754;51.498;7.540;2022-09-13T06:55:20;3.35;;;2.13;;
16189;SDS011;41754;51.498;7.540;2022-09-13T06:57:48;4.75;;;2.65;;
16189;SDS011;41754;51.498;7.540;2022-09-13T07:00:16;3.70;;;2.40;;
16189;SDS011;41754;51.498;7.540;2022-09-13T07:02:44;4.00;;;2.17;;
16189;SDS011;41754;51.498;7.540;2022-09-13T07:05:17;3.42;;;2.10;;
16189;SDS011;41754;51.498;7.540;2022-09-13T07:07:46;2.92;;;2.28;;
16189;SDS011;41754;51.498;7.540;2022-09-13T07:10:13;3.60;;;2.28;;
16189;SDS011;41754;51.498;7.540;2022-09-13T07:12:43;3.67;;;2.10;;
16189;SDS011;41754;51.498;7.540;2022-09-13T07:15:11;4.87;;;2.00;;
16189;SDS011;41754;51.498;7.540;2022-09-13T07:17:38;4.13;;;2.63;;
16189;SDS011;41754;51.498;7.540;2022-09-13T07:20:07;2.55;;;2.20;;
16189;SDS011;41754;51.498;7.540;2022-09-13T07:22:35;3.22;;;2.40;;
16189;SDS011;41754;51.498;7.540;2022-09-13T07:25:03;2.80;;;2.38;;
16189;SDS011;41754;51.498;7.540;2022-09-13T07:27:31;3.70;;;2.57;;
16189;SDS011;41754;51.498;7.540;2022-09-13T07:30:00;4.45;;;2.42;;
16189;SDS011;41754;51.498;7.540;2022-09-13T07:32:30;2.87;;;2.20;;
16189;SDS011;41754;51.498;7.540;2022-09-13T07:34:58;3.67;;;2.20;;
16189;SDS011;41754;51.498;7.540;2022-09-13T07:37:26;2.70;;;2.10;;
16189;SDS011;41754;51.498;7.540;2022-09-13T07:39:54;3.88;;;2.22;;
16189;SDS011;41754;51.498;7.540;2022-09-13T07:42:22;2.70;;;2.00;;
16189;SDS011;41754;51.498;7.540;2022-09-13T07:44:49;5.80;;;2.60;;
16189;SDS011;41754;51.498;7.540;2022-09-13T07:47:18;5.07;;;2.63;;
16189;SDS011;41754;51.498;7.540;2022-09-13T07:49:46;6.88;;;4.85;;
16189;SDS011;41754;51.498;7.540;2022-09-13T07:52:15;9.57;;;7.07;;
16189;SDS011;41754;51.498;7.540;2022-09-13T07:54:43;4.10;;;2.40;;
16189;SDS011;41754;51.498;7.540;2022-09-13T07:57:12;3.67;;;2.20;;
16189;SDS011;41754;51.498;7.540;2022-09-13T07:59:39;3.45;;;2.28;;
16189;SDS011;41754;51.498;7.540;2022-09-13T08:02:07;3.80;;;2.10;;
16189;SDS011;41754;51.498;7.540;2022-09-13T08:04:37;4.43;;;2.63;;
16189;SDS011;41754;51.498;7.540;2022-09-13T08:07:04;4.18;;;2.42;;
16189;SDS011;41754;51.498;7.540;2022-09-13T08:09:32;5.35;;;2.35;;
16189;SDS011;41754;51.498;7.540;2022-09-13T08:12:00;3.30;;;2.30;;
16189;SDS011;41754;51.498;7.540;2022-09-13T08:14:28;3.75;;;2.55;;
16189;SDS011;41754;51.498;7.540;2022-09-13T08:16:56;4.03;;;2.40;;
16189;SDS011;41754;51.498;7.540;2022-09-13T08:19:24;4.95;;;2.40;;
16189;SDS011;41754;51.498;7.540;2022-09-13T08:21:53;3.25;;;2.60;;
16189;SDS011;41754;51.498;7.540;2022-09-13T08:24:21;3.53;;;2.63;;
16189;SDS011;41754;51.498;7.540;2022-09-13T08:26:49;5.13;;;2.57;;
16189;SDS011;41754;51.498;7.540;2022-09-13T08:29:17;4.65;;;2.50;;
16189;SDS011;41754;51.498;7.540;2022-09-13T08:31:45;3.67;;;2.72;;
16189;SDS011;41754;51.498;7.540;2022-09-13T08:34:13;3.77;;;2.50;;
16189;SDS011;41754;51.498;7.540;2022-09-13T08:36:42;3.87;;;2.70;;
16189;SDS011;41754;51.498;7.540;2022-09-13T08:39:11;5.68;;;3.10;;
16189;SDS011;41754;51.498;7.540;2022-09-13T08:41:51;4.88;;;3.00;;
16189;SDS011;41754;51.498;7.540;2022-09-13T08:44:26;3.92;;;2.88;;
16189;SDS011;41754;51.498;7.540;2022-09-13T08:46:56;4.53;;;3.20;;
16189;SDS011;41754;51.498;7.540;2022-09-13T08:49:29;4.80;;;2.80;;
16189;SDS011;41754;51.498;7.540;2022-09-13T08:52:00;3.75;;;2.95;;
16189;SDS011;41754;51.498;7.540;2022-09-13T08:54:31;5.13;;;3.55;;
16189;SDS011;41754;51.498;7.540;2022-09-13T08:57:00;6.82;;;3.50;;
16189;SDS011;41754;51.498;7.540;2022-09-13T08:59:35;7.82;;;4.13;;
16189;SDS011;41754;51.498;7.540;2022-09-13T09:02:11;5.82;;;3.38;;
16189;SDS011;41754;51.498;7.540;2022-09-13T09:04:48;6.45;;;3.92;;
16189;SDS011;41754;51.498;7.540;2022-09-13T09:07:22;4.60;;;3.50;;
16189;SDS011;41754;51.498;7.540;2022-09-13T09:09:54;5.38;;;3.63;;
16189;SDS011;41754;51.498;7.540;2022-09-13T09:12:26;5.75;;;4.03;;
16189;SDS011;41754;51.498;7.540;2022-09-13T09:14:58;6.38;;;4.03;;
16189;SDS011;41754;51.498;7.540;2022-09-13T09:17:29;5.05;;;3.67;;
16189;SDS011;41754;51.498;7.540;2022-09-13T09:20:02;8.10;;;3.92;;
16189;SDS011;41754;51.498;7.540;2022-09-13T09:22:35;5.30;;;4.07;;
16189;SDS011;41754;51.498;7.540;2022-09-13T09:25:04;4.97;;;4.00;;
16189;SDS011;41754;51.498;7.540;2022-09-13T09:27:35;4.60;;;3.77;;
16189;SDS011;41754;51.498;7.540;2022-09-13T09:30:03;4.60;;;3.60;;
16189;SDS011;41754;51.498;7.540;2022-09-13T09:32:44;4.60;;;3.58;;
16189;SDS011;41754;51.498;7.540;2022-09-13T09:35:19;5.72;;;3.83;;
16189;SDS011;41754;51.498;7.540;2022-09-13T09:37:58;7.10;;;3.75;;
16189;SDS011;41754;51.498;7.540;2022-09-13T09:40:35;5.72;;;3.75;;
16189;SDS011;41754;51.498;7.540;2022-09-13T09:43:09;5.83;;;4.10;;
16189;SDS011;41754;51.498;7.540;2022-09-13T09:45:39;6.03;;;4.78;;
16189;SDS011;41754;51.498;7.540;2022-09-13T09:48:11;7.82;;;4.00;;
16189;SDS011;41754;51.498;7.540;2022-09-13T09:50:43;6.40;;;4.30;;
16189;SDS011;41754;51.498;7.540;2022-09-13T09:53:15;7.77;;;4.40;;
16189;SDS011;41754;51.498;7.540;2022-09-13T09:55:51;5.10;;;4.35;;
16189;SDS011;41754;51.498;7.540;2022-09-13T09:58:35;6.37;;;4.53;;
16189;SDS011;41754;51.498;7.540;2022-09-13T10:01:04;5.18;;;4.10;;
16189;SDS011;41754;51.498;7.540;2022-09-13T10:03:36;5.43;;;4.05;;
16189;SDS011;41754;51.498;7.540;2022-09-13T10:06:07;5.68;;;3.92;;
16189;SDS011;41754;51.498;7.540;2022-09-13T10:08:36;8.00;;;5.13;;
16189;SDS011;41754;51.498;7.540;2022-09-13T10:11:06;6.33;;;4.80;;
16189;SDS011;41754;51.498;7.540;2022-09-13T10:13:35;8.57;;;5.00;;
16189;SDS011;41754;51.498;7.540;2022-09-13T10:16:04;6.93;;;5.30;;
16189;SDS011;41754;51.498;7.540;2022-09-13T10:18:33;6.05;;;4.72;;
16189;SDS011;41754;51.498;7.540;2022-09-13T10:21:19;6.68;;;5.07;;
16189;SDS011;41754;51.498;7.540;2022-09-13T10:23:49;5.80;;;5.30;;
16189;SDS011;41754;51.498;7.540;2022-09-13T10:26:19;7.50;;;4.80;;
16189;SDS011;41754;51.498;7.540;2022-09-13T10:28:53;8.00;;;5.07;;
16189;SDS011;41754;51.498;7.540;2022-09-13T10:31:26;6.10;;;5.03;;
16189;SDS011;41754;51.498;7.540;2022-09-13T10:33:55;7.13;;;5.20;;
16189;SDS011;41754;51.498;7.540;2022-09-13T10:36:26;6.10;;;4.93;;
16189;SDS011;41754;51.498;7.540;2022-09-13T10:39:16;7.45;;;4.70;;
16189;SDS011;41754;51.498;7.540;2022-09-13T10:41:51;5.72;;;4.70;;
16189;SDS011;41754;51.498;7.540;2022-09-13T10:44:22;7.03;;;4.80;;
16189;SDS011;41754;51.498;7.540;2022-09-13T10:46:53;7.20;;;4.38;;
16189;SDS011;41754;51.498;7.540;2022-09-13T10:49:34;4.43;;;3.90;;
16189;SDS011;41754;51.498;7.540;2022-09-13T10:54:53;5.83;;;4.87;;
16189;SDS011;41754;51.498;7.540;2022-09-13T10:57:28;5.45;;;4.10;;
16189;SDS011;41754;51.498;7.540;2022-09-13T10:59:59;6.70;;;4.30;;
16189;SDS011;41754;51.498;7.540;2022-09-13T11:02:41;5.40;;;4.20;;
16189;SDS011;41754;51.498;7.540;2022-09-13T11:05:18;4.80;;;3.90;;
16189;SDS011;41754;51.498;7.540;2022-09-13T11:07:51;6.33;;;4.10;;
16189;SDS011;41754;51.498;7.540;2022-09-13T11:10:40;5.40;;;4.30;;
16189;SDS011;41754;51.498;7.540;2022-09-13T11:13:16;6.17;;;3.87;;
16189;SDS011;41754;51.498;7.540;2022-09-13T11:15:50;4.60;;;3.43;;
16189;SDS011;41754;51.498;7.540;2022-09-13T11:18:34;4.22;;;3.78;;
16189;SDS011;41754;51.498;7.540;2022-09-13T11:21:20;4.85;;;3.67;;
16189;SDS011;41754;51.498;7.540;2022-09-13T11:24:00;4.15;;;3.30;;
16189;SDS011;41754;51.498;7.540;2022-09-13T11:26:35;3.47;;;2.90;;
16189;SDS011;41754;51.498;7.540;2022-09-13T11:29:13;4.97;;;3.20;;
16189;SDS011;41754;51.498;7.540;2022-09-13T11:31:49;4.57;;;4.05;;
16189;SDS011;41754;51.498;7.540;2022-09-13T11:34:27;5.07;;;3.50;;
16189;SDS011;41754;51.498;7.540;2022-09-13T11:37:05;4.10;;;3.33;;
16189;SDS011;41754;51.498;7.540;2022-09-13T11:39:42;4.20;;;2.83;;
16189;SDS011;41754;51.498;7.540;2022-09-13T11:42:19;4.55;;;3.17;;
16189;SDS011;41754;51.498;7.540;2022-09-13T11:44:59;5.75;;;3.17;;
16189;SDS011;41754;51.498;7.540;2022-09-13T11:47:47;4.57;;;3.17;;
16189;SDS011;41754;51.498;7.540;2022-09-13T11:50:28;5.53;;;3.00;;
16189;SDS011;41754;51.498;7.540;2022-09-13T11:53:06;4.57;;;2.83;;
16189;SDS011;41754;51.498;7.540;2022-09-13T11:55:44;5.57;;;3.67;;
16189;SDS011;41754;51.498;7.540;2022-09-13T11:58:15;4.25;;;3.40;;
16189;SDS011;41754;51.498;7.540;2022-09-13T12:00:49;5.32;;;3.97;;
16189;SDS011;41754;51.498;7.540;2022-09-13T12:03:20;4.15;;;3.33;;
16189;SDS011;41754;51.498;7.540;2022-09-13T12:05:52;4.97;;;3.53;;
16189;SDS011;41754;51.498;7.540;2022-09-13T12:08:22;4.60;;;3.60;;
16189;SDS011;41754;51.498;7.540;2022-09-13T12:10:54;4.45;;;4.05;;
16189;SDS011;41754;51.498;7.540;2022-09-13T12:13:23;6.18;;;3.70;;
16189;SDS011;41754;51.498;7.540;2022-09-13T12:15:54;5.83;;;3.40;;
16189;SDS011;41754;51.498;7.540;2022-09-13T12:18:24;6.03;;;3.70;;
16189;SDS011;41754;51.498;7.540;2022-09-13T12:20:54;4.32;;;3.90;;
16189;SDS011;41754;51.498;7.540;2022-09-13T12:23:26;5.43;;;4.35;;
16189;SDS011;41754;51.498;7.540;2022-09-13T12:25:57;5.35;;;4.28;;
16189;SDS011;41754;51.498;7.540;2022-09-13T12:28:28;4.20;;;3.80;;
16189;SDS011;41754;51.498;7.540;2022-09-13T12:31:03;6.47;;;4.35;;
16189;SDS011;41754;51.498;7.540;2022-09-13T12:33:32;5.45;;;4.20;;
16189;SDS011;41754;51.498;7.540;2022-09-13T12:39:18;6.32;;;4.50;;
16189;SDS011;41754;51.498;7.540;2022-09-13T12:42:13;9.00;;;5.35;;
16189;SDS011;41754;51.498;7.540;2022-09-13T12:45:22;7.55;;;5.40;;
16189;SDS011;41754;51.498;7.540;2022-09-13T12:48:11;8.13;;;6.10;;
16189;SDS011;41754;51.498;7.540;2022-09-13T12:50:46;6.75;;;5.60;;
16189;SDS011;41754;51.498;7.540;2022-09-13T12:53:26;7.57;;;6.20;;
16189;SDS011;41754;51.498;7.540;2022-09-13T12:56:23;8.45;;;5.55;;
16189;SDS011;41754;51.498;7.540;2022-09-13T12:59:01;7.28;;;5.57;;
16189;SDS011;41754;51.498;7.540;2022-09-13T13:01:36;8.52;;;5.72;;
16189;SDS011;41754;51.498;7.540;2022-09-13T13:04:09;7.50;;;6.10;;
16189;SDS011;41754;51.498;7.540;2022-09-13T13:06:46;7.15;;;5.80;;
16189;SDS011;41754;51.498;7.540;2022-09-13T13:09:21;6.20;;;5.60;;
16189;SDS011;41754;51.498;7.540;2022-09-13T13:11:54;6.43;;;5.07;;
16189;SDS011;41754;51.498;7.540;2022-09-13T13:14:28;7.00;;;6.30;;
16189;SDS011;41754;51.498;7.540;2022-09-13T13:23:17;10.00;;;7.53;;
16189;SDS011;41754;51.498;7.540;2022-09-13T13:25:57;6.88;;;6.20;;
16189;SDS011;41754;51.498;7.540;2022-09-13T13:31:40;8.15;;;7.03;;
16189;SDS011;41754;51.498;7.540;2022-09-13T13:37:04;7.28;;;6.43;;
16189;SDS011;41754;51.498;7.540;2022-09-13T13:39:49;7.70;;;5.80;;
16189;SDS011;41754;51.498;7.540;2022-09-13T13:42:38;6.82;;;5.88;;
16189;SDS011;41754;51.498;7.540;2022-09-13T13:45:15;7.45;;;5.28;;
16189;SDS011;41754;51.498;7.540;2022-09-13T13:53:43;6.80;;;5.93;;
16189;SDS011;41754;51.498;7.540;2022-09-13T13:56:24;6.70;;;6.10;;
16189;SDS011;41754;51.498;7.540;2022-09-13T13:58:57;7.32;;;5.95;;
16189;SDS011;41754;51.498;7.540;2022-09-13T14:01:27;6.00;;;5.35;;
16189;SDS011;41754;51.498;7.540;2022-09-13T14:06:59;7.87;;;7.17;;
16189;SDS011;41754;51.498;7.540;2022-09-13T14:09:47;7.40;;;6.70;;
16189;SDS011;41754;51.498;7.540;2022-09-13T14:12:20;8.07;;;7.28;;
16189;SDS011;41754;51.498;7.540;2022-09-13T14:15:07;8.90;;;8.00;;
16189;SDS011;41754;51.498;7.540;2022-09-13T14:21:01;7.13;;;6.43;;
16189;SDS011;41754;51.498;7.540;2022-09-13T14:23:30;6.45;;;5.50;;
16189;SDS011;41754;51.498;7.540;2022-09-13T14:26:00;8.15;;;7.32;;
16189;SDS011;41754;51.498;7.540;2022-09-13T14:28:28;7.90;;;6.90;;
16189;SDS011;41754;51.498;7.540;2022-09-13T14:30:58;6.82;;;6.10;;
16189;SDS011;41754;51.498;7.540;2022-09-13T14:33:27;6.43;;;5.78;;
16189;SDS011;41754;51.498;7.540;2022-09-13T14:36:01;6.60;;;6.00;;
16189;SDS011;41754;51.498;7.540;2022-09-13T14:38:31;6.78;;;5.68;;
16189;SDS011;41754;51.498;7.540;2022-09-13T14:41:09;9.15;;;7.90;;
16189;SDS011;41754;51.498;7.540;2022-09-13T14:43:39;6.53;;;5.93;;
16189;SDS011;41754;51.498;7.540;2022-09-13T14:46:08;7.53;;;6.83;;
16189;SDS011;41754;51.498;7.540;2022-09-13T14:48:39;9.17;;;7.43;;
16189;SDS011;41754;51.498;7.540;2022-09-13T14:51:12;8.03;;;7.27;;
16189;SDS011;41754;51.498;7.540;2022-09-13T14:53:43;8.35;;;7.45;;
16189;SDS011;41754;51.498;7.540;2022-09-13T14:56:14;7.93;;;7.13;;
16189;SDS011;41754;51.498;7.540;2022-09-13T14:58:44;8.30;;;6.13;;
16189;SDS011;41754;51.498;7.540;2022-09-13T15:01:14;6.70;;;6.00;;
16189;SDS011;41754;51.498;7.540;2022-09-13T15:03:43;7.17;;;5.60;;
16189;SDS011;41754;51.498;7.540;2022-09-13T15:06:20;7.00;;;6.30;;
16189;SDS011;41754;51.498;7.540;2022-09-13T15:08:50;6.63;;;6.10;;
16189;SDS011;41754;51.498;7.540;2022-09-13T15:11:33;7.20;;;6.60;;
16189;SDS011;41754;51.498;7.540;2022-09-13T15:14:08;6.70;;;6.10;;
16189;SDS011;41754;51.498;7.540;2022-09-13T15:16:50;6.87;;;6.27;;
16189;SDS011;41754;51.498;7.540;2022-09-13T15:19:36;7.63;;;6.25;;
16189;SDS011;41754;51.498;7.540;2022-09-13T15:22:10;7.28;;;6.20;;
16189;SDS011;41754;51.498;7.540;2022-09-13T15:24:45;9.38;;;8.45;;
16189;SDS011;41754;51.498;7.540;2022-09-13T15:27:17;9.02;;;7.82;;
16189;SDS011;41754;51.498;7.540;2022-09-13T15:29:47;8.82;;;7.22;;
16189;SDS011;41754;51.498;7.540;2022-09-13T15:32:20;7.95;;;7.18;;
16189;SDS011;41754;51.498;7.540;2022-09-13T15:34:49;9.52;;;8.60;;
16189;SDS011;41754;51.498;7.540;2022-09-13T15:37:18;7.80;;;7.10;;
16189;SDS011;41754;51.498;7.540;2022-09-13T15:40:06;7.97;;;7.18;;
16189;SDS011;41754;51.498;7.540;2022-09-13T15:42:40;9.00;;;8.10;;
16189;SDS011;41754;51.498;7.540;2022-09-13T15:45:11;8.02;;;7.22;;
16189;SDS011;41754;51.498;7.540;2022-09-13T15:47:39;7.47;;;6.77;;
16189;SDS011;41754;51.498;7.540;2022-09-13T15:50:08;8.77;;;7.80;;
16189;SDS011;41754;51.498;7.540;2022-09-13T15:52:45;8.23;;;7.45;;
16189;SDS011;41754;51.498;7.540;2022-09-13T15:55:13;9.30;;;8.40;;
16189;SDS011;41754;51.498;7.540;2022-09-13T15:57:43;8.65;;;7.30;;